Airfield :







YOU CAN JOIN US ON...

 
LOGIN :

Register | Disclaimer

   EN    FR    IT 

 









Legend :    VFR   Marginal VFR   IFR   Intensive IFR   Very Intensive IFR
Visi :
Ceiling :
>= 8 km
>= 3000ft
5 to 8 km
1000 to 3000 ft
1500m to 5 km
500 to 1000 ft
800 to 1500m
200 to 500 ft
< 800m
< 200 ft
Symbols :   Thunderstorms  Fog  Heavy snow  Heavy precipitations  Wind > 20 kt






- Airport Elevation : 122 ft
- IATA code : YTQ


CYTQ - Tasiujaq

CURRENT METAR :
  • 062000Z 30025G31KT 3/4SM -SN BLSN OVC022 M18/M21 A2974 RMK BLSN2SC6 SLP076

EXPIRED METARs :
  • 061900Z 29025G31KT 1 1/2SM -SN BLSN BKN022 M16/M19 A2972 RMK BLSN1SC6 SLP068
  • 061800Z 30027G32KT 5/8SM -SN BLSN OVC020 M16/M19 A2970 RMK BLSN2SC6 SLP061

TAF TAF CYTQ
Valid from the 06 at 15:00 until the 06 at 22:00 UTC


061438Z 0615/0622 30020KT 5/8SM -SN BLSN VV008
TEMPO 0615/0622 3SM -SN OVC025 RMK NXT FCST WILL BE ISSUED AT 071445Z



MET'MAP, your aeronautical weather chart ! - Copyright ORBIFLY December 2007 - Disclaimer

ORBIFLY MET'MAP TEAM :

Programming & Development : Alexandra Zaïnal
Concept & original design : Baudouin d'Aumeries
Assistance for programming : Marc-Olivier Méhu
Technical & hardware support : Manuel Goepfert

Contact : metmap@orbifly.com




SOURCES & CREDITS :

   NOAA